createdAt,value
2024-01-24T00:00:55.936Z,5.88
2024-01-24T00:03:22.678Z,5.87
2024-01-24T00:05:49.349Z,5.85
2024-01-24T00:08:15.864Z,5.83
2024-01-24T00:10:42.448Z,5.83
2024-01-24T00:13:09.034Z,5.80
2024-01-24T00:15:35.667Z,5.86
2024-01-24T00:18:02.417Z,5.81
2024-01-24T00:20:30.328Z,5.82
2024-01-24T00:22:56.867Z,5.83
2024-01-24T00:25:23.438Z,5.83
2024-01-24T00:27:50.256Z,5.85
2024-01-24T00:30:16.784Z,5.84
2024-01-24T00:32:43.537Z,5.83
2024-01-24T00:35:10.152Z,5.78
2024-01-24T00:37:36.730Z,5.83
2024-01-24T00:40:04.406Z,5.85
2024-01-24T00:42:31.023Z,5.85
2024-01-24T00:44:57.547Z,5.85
2024-01-24T00:47:24.089Z,5.84
2024-01-24T00:49:50.648Z,5.78
2024-01-24T00:52:17.286Z,5.83
2024-01-24T00:54:43.899Z,5.84
2024-01-24T00:57:10.542Z,5.81
2024-01-24T00:59:37.146Z,5.87
2024-01-24T01:02:03.919Z,5.83
2024-01-24T01:04:30.514Z,5.82
2024-01-24T01:06:57.044Z,5.83
2024-01-24T01:09:23.643Z,5.84
2024-01-24T01:11:50.602Z,5.83
2024-01-24T01:14:17.163Z,5.84
2024-01-24T01:16:43.721Z,5.83
2024-01-24T01:19:10.409Z,5.80
2024-01-24T01:21:37.157Z,5.84
2024-01-24T01:24:03.994Z,5.79
2024-01-24T01:26:33.936Z,5.82
2024-01-24T01:29:00.508Z,5.83
2024-01-24T01:31:27.067Z,5.80
2024-01-24T01:33:53.731Z,5.83
2024-01-24T01:36:23.560Z,5.81
2024-01-24T01:38:51.108Z,5.83
2024-01-24T01:41:18.338Z,5.82
2024-01-24T01:43:45.793Z,5.80
2024-01-24T01:46:22.953Z,5.85
2024-01-24T01:48:51.529Z,5.86
2024-01-24T01:51:19.582Z,5.85
2024-01-24T01:53:46.985Z,5.82
2024-01-24T01:56:16.436Z,5.83
2024-01-24T01:58:43.797Z,5.77
2024-01-24T02:01:10.641Z,5.84
2024-01-24T02:03:37.675Z,5.81
2024-01-24T02:06:05.224Z,5.80
2024-01-24T02:08:33.679Z,5.83
2024-01-24T02:11:00.384Z,5.82
2024-01-24T02:13:32.786Z,5.81
2024-01-24T02:16:00.456Z,5.84
2024-01-24T02:18:27.151Z,5.79
2024-01-24T02:20:54.009Z,5.82
2024-01-24T02:23:23.536Z,5.81
2024-01-24T02:25:51.229Z,5.79
2024-01-24T02:28:18.194Z,5.87
2024-01-24T02:30:45.597Z,5.82
2024-01-24T02:33:13.009Z,5.84
2024-01-24T02:35:39.672Z,5.86
2024-01-24T02:38:06.696Z,5.85
2024-01-24T02:40:33.377Z,5.84
2024-01-24T02:43:00.168Z,5.82
2024-01-24T02:45:26.802Z,5.80
2024-01-24T02:47:53.449Z,5.81
2024-01-24T02:50:20.018Z,5.83
2024-01-24T02:52:46.610Z,5.82
2024-01-24T02:55:18.801Z,5.80
2024-01-24T02:57:45.947Z,5.84
2024-01-24T03:00:14.296Z,5.86
2024-01-24T03:02:41.191Z,5.86
2024-01-24T03:05:10.403Z,5.85
2024-01-24T03:07:38.441Z,5.86
2024-01-24T03:10:05.874Z,5.83
2024-01-24T03:12:33.157Z,5.86
2024-01-24T03:14:59.770Z,5.88
2024-01-24T03:17:26.629Z,5.89
2024-01-24T03:19:53.178Z,5.88
2024-01-24T03:22:19.840Z,5.90
2024-01-24T03:24:46.517Z,5.89
2024-01-24T03:27:13.155Z,5.84
2024-01-24T03:29:42.251Z,5.86
2024-01-24T03:32:08.784Z,5.90
2024-01-24T03:34:35.387Z,5.89
2024-01-24T03:37:02.010Z,5.81
2024-01-24T03:39:28.997Z,5.90
2024-01-24T03:41:55.623Z,5.85
2024-01-24T03:44:22.249Z,5.89
2024-01-24T03:46:48.942Z,5.82
2024-01-24T03:49:16.219Z,5.89
2024-01-24T03:51:42.902Z,5.85
2024-01-24T03:54:09.561Z,5.90
2024-01-24T03:56:36.113Z,5.89
2024-01-24T03:59:02.698Z,5.86
2024-01-24T04:01:29.293Z,5.86
2024-01-24T04:03:56.117Z,5.93
2024-01-24T04:06:22.791Z,5.90
2024-01-24T04:08:49.385Z,5.92
2024-01-24T04:11:15.930Z,5.92
2024-01-24T04:13:44.151Z,5.93
2024-01-24T04:16:10.985Z,5.92
2024-01-24T04:18:38.617Z,5.94
2024-01-24T04:21:05.392Z,5.92
2024-01-24T04:23:31.953Z,5.87
2024-01-24T04:25:58.607Z,5.91
2024-01-24T04:28:25.195Z,5.91
2024-01-24T04:30:51.738Z,5.90
2024-01-24T04:33:18.505Z,5.91
2024-01-24T04:35:45.103Z,5.94
2024-01-24T04:38:11.787Z,5.94
2024-01-24T04:40:38.341Z,5.90
2024-01-24T04:43:05.101Z,5.93
2024-01-24T04:45:31.915Z,5.93
2024-01-24T04:47:59.094Z,5.93
2024-01-24T04:50:25.885Z,5.92
2024-01-24T04:52:52.523Z,5.91
2024-01-24T04:55:19.116Z,5.93
2024-01-24T04:57:45.856Z,5.94
2024-01-24T05:00:13.769Z,5.96
2024-01-24T05:02:41.115Z,5.90
2024-01-24T05:05:08.582Z,5.94
2024-01-24T05:07:36.118Z,5.93
2024-01-24T05:10:04.717Z,5.97
2024-01-24T05:12:31.996Z,5.95
2024-01-24T05:14:58.573Z,5.97
2024-01-24T05:17:25.145Z,6.03
2024-01-24T05:19:51.773Z,6.04
2024-01-24T05:22:18.594Z,6.05
2024-01-24T05:24:48.665Z,6.07
2024-01-24T05:27:16.755Z,6.03
2024-01-24T05:29:46.516Z,6.04
2024-01-24T05:32:13.154Z,6.00
2024-01-24T05:34:39.826Z,6.06
2024-01-24T05:37:06.742Z,6.05
2024-01-24T05:39:33.336Z,6.09
2024-01-24T05:42:00.280Z,6.08
2024-01-24T05:44:26.898Z,6.11
2024-01-24T05:46:53.446Z,6.09
2024-01-24T05:49:20.171Z,6.07
2024-01-24T05:51:46.830Z,6.09
2024-01-24T05:54:13.428Z,6.13
2024-01-24T05:56:40.976Z,6.13
2024-01-24T05:59:07.533Z,6.17
2024-01-24T06:01:34.353Z,6.14
2024-01-24T06:04:01.147Z,6.15
2024-01-24T06:06:27.807Z,6.14
2024-01-24T06:08:54.434Z,6.13
2024-01-24T06:11:21.047Z,6.16
2024-01-24T06:13:48.537Z,6.19
2024-01-24T06:16:15.658Z,6.21
2024-01-24T06:18:43.142Z,6.20
2024-01-24T06:21:10.478Z,6.20
2024-01-24T06:23:37.195Z,6.21
2024-01-24T06:26:03.909Z,6.24
2024-01-24T06:28:30.460Z,6.22
2024-01-24T06:30:57.060Z,6.25
2024-01-24T06:33:25.622Z,6.21
2024-01-24T06:35:52.337Z,6.27
2024-01-24T06:38:19.007Z,6.27
2024-01-24T06:40:45.681Z,6.28
2024-01-24T06:43:15.813Z,6.27
2024-01-24T06:45:42.549Z,6.27
2024-01-24T06:48:09.495Z,6.28
2024-01-24T06:50:36.216Z,6.29
2024-01-24T06:53:02.926Z,6.31
2024-01-24T06:55:29.457Z,6.32
2024-01-24T06:57:56.906Z,6.33
2024-01-24T07:00:24.537Z,6.32
2024-01-24T07:02:51.126Z,6.34
2024-01-24T07:05:18.335Z,6.34
2024-01-24T07:07:45.132Z,6.35
2024-01-24T07:10:12.869Z,6.36
2024-01-24T07:12:46.312Z,6.38
2024-01-24T07:15:13.583Z,6.39
2024-01-24T07:17:41.038Z,6.39
2024-01-24T07:20:08.514Z,6.42
2024-01-24T07:22:35.112Z,6.44
2024-01-24T07:25:02.764Z,6.47
2024-01-24T07:27:31.739Z,6.43
2024-01-24T07:29:59.034Z,6.44
2024-01-24T07:32:25.699Z,6.46
2024-01-24T07:34:52.329Z,6.47
2024-01-24T07:37:19.009Z,6.51
2024-01-24T07:39:45.621Z,6.53
2024-01-24T07:42:12.155Z,6.49
2024-01-24T07:44:38.723Z,6.44
2024-01-24T07:47:05.828Z,6.51
2024-01-24T07:49:36.539Z,6.53
2024-01-24T07:52:05.433Z,6.52
2024-01-24T07:54:32.449Z,6.54
2024-01-24T07:56:59.373Z,6.56
2024-01-24T07:59:26.074Z,6.58
2024-01-24T08:01:52.790Z,6.53
2024-01-24T08:04:20.315Z,6.58
2024-01-24T08:06:48.794Z,6.61
2024-01-24T08:09:15.822Z,6.62
2024-01-24T08:11:42.856Z,6.59
2024-01-24T08:14:09.959Z,6.60
2024-01-24T08:16:36.900Z,6.60
2024-01-24T08:19:04.019Z,6.62
2024-01-24T08:21:30.678Z,6.65
2024-01-24T08:23:57.391Z,6.67
2024-01-24T08:26:25.294Z,6.71
2024-01-24T08:28:53.526Z,6.70
2024-01-24T08:31:20.312Z,6.69
2024-01-24T08:33:50.334Z,6.67
2024-01-24T08:36:18.845Z,6.71
2024-01-24T08:38:45.443Z,6.72
2024-01-24T08:41:12.023Z,6.69
2024-01-24T08:43:38.580Z,6.73
2024-01-24T08:46:05.249Z,6.75
2024-01-24T08:48:31.953Z,6.76
2024-01-24T08:50:58.539Z,6.76
2024-01-24T08:53:25.092Z,6.72
2024-01-24T08:55:51.616Z,6.76
2024-01-24T08:58:18.272Z,6.78
2024-01-24T09:00:46.395Z,6.80
2024-01-24T09:03:13.462Z,6.81
2024-01-24T09:05:40.103Z,6.84
2024-01-24T09:08:06.935Z,6.81
2024-01-24T09:10:33.652Z,6.81
2024-01-24T09:13:00.488Z,6.84
2024-01-24T09:15:27.165Z,6.86
2024-01-24T09:17:53.897Z,6.91
2024-01-24T09:20:20.616Z,6.92
2024-01-24T09:22:47.973Z,6.92
2024-01-24T09:25:15.722Z,6.91
2024-01-24T09:27:42.845Z,6.93
2024-01-24T09:30:09.679Z,6.93
2024-01-24T09:32:36.380Z,6.95
2024-01-24T09:35:03.470Z,6.95
2024-01-24T09:37:30.145Z,6.98
2024-01-24T09:39:57.380Z,6.97
2024-01-24T09:42:27.664Z,6.98
2024-01-24T09:44:59.148Z,6.99
2024-01-24T09:47:26.650Z,7.01
2024-01-24T09:49:53.478Z,7.01
2024-01-24T09:52:25.122Z,6.99
2024-01-24T09:54:58.860Z,7.04
2024-01-24T09:57:26.398Z,7.04
2024-01-24T09:59:52.977Z,7.05
2024-01-24T10:02:19.644Z,7.08
2024-01-24T10:04:46.522Z,7.05
2024-01-24T10:07:14.415Z,7.08
2024-01-24T10:09:41.264Z,7.10
2024-01-24T10:12:07.942Z,7.12
2024-01-24T10:14:34.909Z,7.12
2024-01-24T10:17:01.851Z,7.14
2024-01-24T10:19:28.904Z,7.14
2024-01-24T10:21:55.795Z,7.18
2024-01-24T10:24:22.538Z,7.20
2024-01-24T10:26:49.301Z,7.20
2024-01-24T10:29:16.763Z,7.18
2024-01-24T10:31:43.540Z,7.22
2024-01-24T10:34:10.614Z,7.23
2024-01-24T10:36:43.466Z,7.21
2024-01-24T10:39:13.287Z,7.23
2024-01-24T10:41:44.273Z,7.20
2024-01-24T10:44:15.741Z,7.27
2024-01-24T10:46:42.432Z,7.28
2024-01-24T10:49:11.076Z,7.26
2024-01-24T10:51:38.204Z,7.31
2024-01-24T10:54:06.111Z,7.30
2024-01-24T10:56:34.227Z,7.34
2024-01-24T10:59:04.402Z,7.33
2024-01-24T11:01:31.198Z,7.34
2024-01-24T11:03:58.754Z,7.38
2024-01-24T11:06:29.905Z,7.35
2024-01-24T11:09:09.123Z,7.30
2024-01-24T11:11:37.748Z,7.30
2024-01-24T11:14:04.363Z,7.32
2024-01-24T11:16:32.581Z,7.36
2024-01-24T11:19:00.960Z,7.40
2024-01-24T11:21:32.823Z,7.39
2024-01-24T11:24:00.526Z,7.39
2024-01-24T11:26:27.029Z,7.42
2024-01-24T11:29:16.699Z,7.42
2024-01-24T11:31:44.505Z,7.44
2024-01-24T11:34:14.811Z,7.42
2024-01-24T11:36:48.832Z,7.44
2024-01-24T11:39:40.986Z,7.48
2024-01-24T11:42:53.480Z,7.52
2024-01-24T11:45:23.935Z,7.46
2024-01-24T11:47:51.117Z,7.44
2024-01-24T11:50:20.746Z,7.51
2024-01-24T11:52:49.063Z,7.51
2024-01-24T11:55:15.575Z,7.55
2024-01-24T11:57:42.459Z,7.58
2024-01-24T12:00:10.476Z,7.55
2024-01-24T12:02:37.912Z,7.54
2024-01-24T12:05:05.842Z,7.54
2024-01-24T12:07:32.801Z,7.60
2024-01-24T12:09:59.658Z,7.62
2024-01-24T12:12:28.722Z,7.64
2024-01-24T12:14:58.951Z,7.66
2024-01-24T12:17:26.341Z,7.72
2024-01-24T12:19:53.185Z,7.72
2024-01-24T12:22:36.818Z,7.73
2024-01-24T12:25:05.038Z,7.73
2024-01-24T12:27:31.780Z,7.74
2024-01-24T12:29:58.777Z,7.76
2024-01-24T12:32:25.522Z,7.77
2024-01-24T12:34:55.105Z,7.83
2024-01-24T12:37:24.456Z,7.85
2024-01-24T12:39:54.196Z,7.79
2024-01-24T12:42:21.400Z,7.84
2024-01-24T12:44:53.708Z,7.86
2024-01-24T12:47:20.514Z,7.88
2024-01-24T12:49:47.500Z,7.88
2024-01-24T12:52:14.227Z,7.87
2024-01-24T12:54:41.014Z,7.98
2024-01-24T12:57:07.676Z,8.01
2024-01-24T12:59:34.845Z,8.05
2024-01-24T13:02:03.844Z,8.01
2024-01-24T13:04:30.627Z,8.04
2024-01-24T13:06:57.246Z,8.07
2024-01-24T13:09:23.957Z,8.12
2024-01-24T13:11:51.127Z,8.10
2024-01-24T13:14:17.971Z,8.12
2024-01-24T13:16:45.324Z,8.07
2024-01-24T13:19:11.918Z,8.13
2024-01-24T13:21:42.649Z,8.24
2024-01-24T13:24:09.695Z,8.24
2024-01-24T13:26:36.354Z,8.26
2024-01-24T13:29:02.845Z,8.30
2024-01-24T13:31:29.490Z,8.32
2024-01-24T13:33:56.416Z,8.34
2024-01-24T13:36:23.367Z,8.35
2024-01-24T13:38:50.118Z,8.40
2024-01-24T13:41:17.573Z,8.39
2024-01-24T13:43:44.287Z,8.42
2024-01-24T13:46:11.799Z,8.42
2024-01-24T13:48:38.568Z,8.47
2024-01-24T13:51:05.167Z,8.45
2024-01-24T13:53:31.741Z,8.48
2024-01-24T13:55:58.414Z,8.49
2024-01-24T13:58:28.115Z,8.51
2024-01-24T14:00:55.463Z,8.58
2024-01-24T14:03:22.258Z,8.58
2024-01-24T14:05:51.211Z,8.62
2024-01-24T14:08:17.878Z,8.65
2024-01-24T14:10:44.424Z,8.78
2024-01-24T14:13:11.139Z,8.81
2024-01-24T14:15:38.131Z,8.80
2024-01-24T14:18:06.348Z,8.77
2024-01-24T14:20:34.384Z,8.77
2024-01-24T14:23:01.222Z,8.82
2024-01-24T14:25:27.667Z,8.85
2024-01-24T14:27:54.287Z,8.87
2024-01-24T14:30:21.030Z,8.85
2024-01-24T14:32:47.618Z,8.92
2024-01-24T14:35:17.649Z,8.93
2024-01-24T14:37:45.480Z,8.96
2024-01-24T14:40:14.768Z,9.00
2024-01-24T14:42:42.350Z,8.97
2024-01-24T14:45:09.532Z,9.02
2024-01-24T14:47:36.127Z,9.06
2024-01-24T14:50:02.853Z,9.00
2024-01-24T14:52:29.535Z,9.07
2024-01-24T14:54:56.183Z,9.13
2024-01-24T14:57:22.774Z,9.16
2024-01-24T14:59:49.432Z,9.19
2024-01-24T15:02:17.039Z,9.22
2024-01-24T15:04:43.596Z,9.22
2024-01-24T15:07:10.377Z,9.17
2024-01-24T15:09:37.069Z,9.21
2024-01-24T15:12:04.746Z,9.25
2024-01-24T15:14:31.295Z,9.48
2024-01-24T15:16:58.365Z,9.61
2024-01-24T15:19:25.344Z,9.67
2024-01-24T15:21:52.501Z,9.70
2024-01-24T15:24:20.906Z,9.75
2024-01-24T15:26:47.658Z,9.74
2024-01-24T15:29:14.078Z,9.79
2024-01-24T15:31:40.692Z,9.87
2024-01-24T15:34:07.724Z,9.84
2024-01-24T15:36:35.443Z,9.83
2024-01-24T15:39:02.315Z,9.68
2024-01-24T15:41:29.256Z,9.88
2024-01-24T15:43:57.614Z,9.96
2024-01-24T15:46:26.340Z,9.92
2024-01-24T15:48:53.131Z,9.97
2024-01-24T15:51:19.815Z,10.03
2024-01-24T15:53:46.277Z,10.03
2024-01-24T15:56:13.128Z,10.03
2024-01-24T15:58:40.240Z,10.00
2024-01-24T16:01:07.056Z,10.00
2024-01-24T16:03:34.939Z,9.87
2024-01-24T16:06:03.180Z,9.92
2024-01-24T16:08:30.728Z,9.94
2024-01-24T16:10:57.922Z,10.02
2024-01-24T16:13:24.903Z,10.02
2024-01-24T16:15:53.247Z,10.03
2024-01-24T16:18:19.865Z,10.05
2024-01-24T16:20:46.327Z,10.06
2024-01-24T16:23:12.938Z,10.03
2024-01-24T16:25:39.437Z,10.06
2024-01-24T16:28:06.202Z,10.04
2024-01-24T16:30:36.284Z,9.96
2024-01-24T16:33:03.287Z,9.95
2024-01-24T16:35:30.016Z,10.04
2024-01-24T16:37:56.551Z,9.94
2024-01-24T16:40:23.134Z,10.02
2024-01-24T16:42:50.598Z,9.98
2024-01-24T16:45:17.796Z,9.98
2024-01-24T16:47:46.034Z,10.00
2024-01-24T16:50:13.185Z,9.95
2024-01-24T16:52:40.930Z,9.91
2024-01-24T16:55:08.616Z,9.93
2024-01-24T16:57:36.653Z,9.98
2024-01-24T17:00:05.367Z,9.94
2024-01-24T17:02:38.456Z,9.92
2024-01-24T17:05:11.107Z,9.94
2024-01-24T17:07:37.981Z,9.98
2024-01-24T17:10:05.087Z,9.95
2024-01-24T17:12:33.507Z,9.92
2024-01-24T17:15:00.497Z,9.95
2024-01-24T17:17:27.117Z,9.95
2024-01-24T17:19:53.708Z,9.95
2024-01-24T17:22:20.950Z,9.93
2024-01-24T17:24:47.502Z,9.89
2024-01-24T17:27:13.960Z,9.87
2024-01-24T17:29:40.553Z,9.85
2024-01-24T17:32:07.069Z,9.87
2024-01-24T17:34:34.341Z,9.82
2024-01-24T17:37:01.359Z,9.88
2024-01-24T17:39:28.256Z,9.87
2024-01-24T17:41:55.040Z,9.84
2024-01-24T17:44:21.576Z,9.84
2024-01-24T17:46:48.172Z,9.80
2024-01-24T17:49:16.591Z,9.79
2024-01-24T17:51:43.892Z,9.76
2024-01-24T17:54:10.676Z,9.78
2024-01-24T17:56:37.449Z,9.76
2024-01-24T17:59:04.243Z,9.79
2024-01-24T18:01:32.543Z,9.73
2024-01-24T18:03:59.511Z,9.73
2024-01-24T18:06:26.886Z,9.72
2024-01-24T18:08:53.612Z,9.69
2024-01-24T18:11:20.176Z,9.71
2024-01-24T18:13:46.760Z,9.69
2024-01-24T18:16:13.357Z,9.66
2024-01-24T18:18:39.968Z,9.69
2024-01-24T18:21:09.149Z,9.70
2024-01-24T18:23:36.734Z,9.69
2024-01-24T18:26:03.314Z,9.66
2024-01-24T18:28:29.893Z,9.68
2024-01-24T18:30:56.872Z,9.62
2024-01-24T18:33:23.682Z,9.64
2024-01-24T18:35:50.444Z,9.60
2024-01-24T18:38:18.122Z,9.62
2024-01-24T18:40:44.765Z,9.63
2024-01-24T18:43:11.437Z,9.59
2024-01-24T18:45:38.138Z,9.61
2024-01-24T18:48:05.425Z,9.61
2024-01-24T18:50:32.190Z,9.59
2024-01-24T18:52:59.053Z,9.62
2024-01-24T18:55:25.572Z,9.58
2024-01-24T18:57:52.165Z,9.58
2024-01-24T19:00:19.759Z,9.58
2024-01-24T19:02:47.402Z,9.56
2024-01-24T19:05:19.830Z,9.56
2024-01-24T19:07:53.659Z,9.59
2024-01-24T19:10:20.209Z,9.56
2024-01-24T19:12:47.208Z,9.54
2024-01-24T19:15:13.878Z,9.53
2024-01-24T19:17:40.982Z,9.53
2024-01-24T19:20:08.185Z,9.52
2024-01-24T19:22:34.866Z,9.47
2024-01-24T19:25:02.137Z,9.53
2024-01-24T19:27:28.825Z,9.50
2024-01-24T19:29:55.340Z,9.52
2024-01-24T19:32:21.997Z,9.41
2024-01-24T19:34:56.973Z,9.46
2024-01-24T19:37:23.896Z,9.48
2024-01-24T19:39:50.513Z,9.48
2024-01-24T19:42:17.861Z,9.43
2024-01-24T19:44:44.564Z,9.44
2024-01-24T19:47:11.446Z,9.44
2024-01-24T19:49:38.284Z,9.43
2024-01-24T19:52:05.235Z,9.43
2024-01-24T19:54:31.823Z,9.42
2024-01-24T19:56:58.425Z,9.39
2024-01-24T19:59:25.239Z,9.36
2024-01-24T20:01:53.097Z,9.38
2024-01-24T20:04:20.375Z,9.36
2024-01-24T20:06:47.102Z,9.39
2024-01-24T20:09:16.596Z,9.39
2024-01-24T20:11:43.396Z,9.36
2024-01-24T20:14:10.020Z,9.25
2024-01-24T20:16:36.596Z,9.39
2024-01-24T20:19:03.280Z,9.33
2024-01-24T20:21:30.119Z,9.34
2024-01-24T20:23:58.128Z,9.35
2024-01-24T20:26:25.802Z,9.33
2024-01-24T20:28:52.869Z,9.32
2024-01-24T20:31:19.421Z,9.30
2024-01-24T20:33:46.076Z,9.29
2024-01-24T20:36:12.837Z,9.28
2024-01-24T20:38:42.812Z,9.29
2024-01-24T20:41:11.112Z,9.29
2024-01-24T20:43:39.237Z,9.29
2024-01-24T20:46:09.836Z,9.17
2024-01-24T20:48:37.675Z,9.28
2024-01-24T20:51:04.998Z,9.22
2024-01-24T20:53:31.819Z,9.25
2024-01-24T20:55:58.904Z,9.23
2024-01-24T20:58:26.086Z,9.26
2024-01-24T21:00:53.341Z,9.26
2024-01-24T21:03:21.179Z,9.22
2024-01-24T21:05:49.045Z,9.22
2024-01-24T21:08:15.839Z,9.21
2024-01-24T21:10:49.007Z,9.19
2024-01-24T21:13:22.050Z,9.20
2024-01-24T21:15:48.715Z,9.23
2024-01-24T21:18:16.456Z,9.19
2024-01-24T21:20:43.412Z,9.16
2024-01-24T21:23:10.545Z,9.17
2024-01-24T21:25:37.154Z,9.14
2024-01-24T21:28:04.183Z,9.17
2024-01-24T21:30:30.779Z,9.17
2024-01-24T21:32:57.403Z,8.98
2024-01-24T21:35:23.956Z,9.14
2024-01-24T21:37:50.765Z,9.12
2024-01-24T21:40:17.402Z,9.13
2024-01-24T21:42:44.353Z,9.12
2024-01-24T21:45:11.086Z,9.09
2024-01-24T21:47:38.272Z,9.11
2024-01-24T21:50:06.534Z,9.08
2024-01-24T21:52:33.144Z,9.08
2024-01-24T21:54:59.730Z,9.10
2024-01-24T21:57:26.311Z,9.08
2024-01-24T21:59:53.013Z,9.08
2024-01-24T22:02:19.452Z,9.07
2024-01-24T22:04:46.092Z,9.05
2024-01-24T22:07:12.836Z,9.06
2024-01-24T22:09:39.618Z,9.05
2024-01-24T22:12:06.335Z,9.01
2024-01-24T22:14:32.862Z,9.05
2024-01-24T22:16:59.492Z,9.03
2024-01-24T22:19:25.986Z,9.02
2024-01-24T22:21:52.643Z,9.02
2024-01-24T22:24:20.734Z,9.01
2024-01-24T22:26:47.299Z,8.96
2024-01-24T22:29:13.890Z,9.00
2024-01-24T22:31:40.530Z,8.99
2024-01-24T22:34:07.340Z,8.98
2024-01-24T22:36:34.227Z,8.97
2024-01-24T22:39:00.842Z,8.96
2024-01-24T22:41:27.457Z,8.96
2024-01-24T22:43:56.357Z,8.89
2024-01-24T22:46:23.617Z,8.95
2024-01-24T22:48:50.399Z,8.96
2024-01-24T22:51:17.951Z,8.96
2024-01-24T22:53:44.452Z,8.94
2024-01-24T22:56:11.284Z,8.94
2024-01-24T22:58:37.911Z,8.90
2024-01-24T23:01:04.837Z,8.89
2024-01-24T23:03:31.645Z,8.85
2024-01-24T23:05:58.471Z,8.88
2024-01-24T23:08:25.098Z,8.87
2024-01-24T23:10:51.737Z,8.87
2024-01-24T23:13:18.584Z,8.88
2024-01-24T23:15:45.141Z,8.87
2024-01-24T23:18:11.752Z,8.86
2024-01-24T23:20:38.394Z,8.86
2024-01-24T23:23:05.386Z,8.88
2024-01-24T23:25:33.273Z,8.81
2024-01-24T23:27:59.941Z,8.85
2024-01-24T23:30:26.598Z,8.83
2024-01-24T23:32:53.205Z,8.83
2024-01-24T23:35:20.232Z,8.81
2024-01-24T23:37:46.984Z,8.80
2024-01-24T23:40:14.024Z,8.79
2024-01-24T23:42:41.124Z,8.79
2024-01-24T23:45:08.266Z,8.75
2024-01-24T23:47:34.822Z,8.76
2024-01-24T23:50:01.663Z,8.81
2024-01-24T23:52:28.488Z,8.79
2024-01-24T23:54:55.141Z,8.76
2024-01-24T23:57:21.742Z,8.76
2024-01-24T23:59:49.455Z,8.78
